Terminal Aerodrome Forecast
Issued by NWS

Home | Current Version | Previous Version | Text Only | Print | Product List | Glossary On
Versions: 1 2 3 4 5 6 7 8 9 10 11 12 13 14 15 16
000
FTUS43 KEAX 271120
TAFSTJ
TAF
KSTJ 271120Z 2712/2812 03005KT P6SM SCT050
     FM271700 08008KT P6SM BKN035
      TEMPO 2717/2721 5SM -TSRA BKN030CB
     FM280300 36008KT P6SM OVC025
     FM280900 33009KT P6SM OVC035=

USA.gov is the U.S. government's official web portal to all federal, state and local government web resources and services.